Time;durP1;ratioP1;P1;durP2;ratioP2;P2;SDS_P1;SDS_P2;PMS_P1;PMS_P2;Temp;Humidity;BMP_temperature;BMP_pressure;BME280_temperature;BME280_humidity;BME280_pressure;Samples;Min_cycle;Max_cycle;Signal;HPM_P1;HPM_P2
2023/06/02 00:01:49;;;;;;;26.40;6.37;;;9.90;99.90;;;;;;5012705;28;20183;-57
2023/06/02 00:04:17;;;;;;;26.70;5.20;;;10.00;99.90;;;;;;5013106;28;20188;-56
2023/06/02 00:06:45;;;;;;;34.27;5.80;;;10.00;99.90;;;;;;5013932;28;20514;-56
2023/06/02 00:09:11;;;;;;;25.77;5.43;;;10.00;1.00;;;;;;5011980;28;20787;-57
2023/06/02 00:11:38;;;;;;;22.67;5.17;;;10.00;1.00;;;;;;5009293;28;20529;-56
2023/06/02 00:14:07;;;;;;;32.60;5.97;;;10.00;1.00;;;;;;5012922;28;20443;-56
2023/06/02 00:16:41;;;;;;;29.57;5.97;;;10.00;1.00;;;;;;5012418;28;20989;-56
2023/06/02 00:19:07;;;;;;;24.37;6.13;;;9.90;99.90;;;;;;5013203;28;20441;-56
2023/06/02 00:21:36;;;;;;;28.60;5.87;;;9.90;1.00;;;;;;5013766;28;20447;-56
2023/06/02 00:24:02;;;;;;;28.90;6.43;;;9.90;5.30;;;;;;5031422;28;20437;-56
2023/06/02 00:26:28;;;;;;;29.87;7.80;;;10.00;1.00;;;;;;5015339;28;20925;-56
2023/06/02 00:28:55;;;;;;;33.43;6.90;;;10.00;11.70;;;;;;5023236;28;20448;-56
2023/06/02 00:31:21;;;;;;;27.70;6.60;;;10.00;99.90;;;;;;5028443;28;20274;-56
2023/06/02 00:33:48;;;;;;;34.23;7.47;;;10.00;99.90;;;;;;5011848;28;20585;-56
2023/06/02 00:36:14;;;;;;;41.83;7.93;;;10.00;1.00;;;;;;5010928;28;20482;-56
2023/06/02 00:38:41;;;;;;;35.70;7.23;;;10.00;99.90;;;;;;5020675;28;20442;-56
2023/06/02 00:41:07;;;;;;;27.00;6.87;;;10.00;99.90;;;;;;5015838;28;20560;-57
2023/06/02 00:43:33;;;;;;;32.63;7.30;;;10.00;1.00;;;;;;5027356;28;20483;-57
2023/06/02 00:45:58;;;;;;;23.77;6.57;;;10.00;1.00;;;;;;5012151;28;21281;-57
2023/06/02 00:48:24;;;;;;;37.50;7.70;;;10.00;1.00;;;;;;5013447;28;20264;-56
2023/06/02 00:50:51;;;;;;;28.83;7.20;;;10.00;1.00;;;;;;5013994;28;20287;-57
2023/06/02 00:53:17;;;;;;;19.73;6.10;;;10.00;1.00;;;;;;5015535;28;20445;-56
2023/06/02 00:55:43;;;;;;;22.27;6.00;;;10.00;1.00;;;;;;5022634;28;20580;-56
2023/06/02 00:58:13;;;;;;;26.70;7.10;;;10.00;1.00;;;;;;5024986;28;20275;-56
2023/06/02 01:00:42;;;;;;;23.80;6.87;;;10.00;1.00;;;;;;5019294;28;20799;-56
2023/06/02 01:03:08;;;;;;;27.83;7.07;;;10.00;1.00;;;;;;5015997;28;20442;-56
2023/06/02 01:05:36;;;;;;;31.07;7.60;;;9.90;1.00;;;;;;5014885;28;20451;-56
2023/06/02 01:08:05;;;;;;;23.00;6.63;;;9.90;1.00;;;;;;5016700;28;20426;-56
2023/06/02 01:10:31;;;;;;;32.27;6.77;;;9.90;1.00;;;;;;5015433;28;20467;-56
2023/06/02 01:12:57;;;;;;;34.87;8.23;;;9.90;1.00;;;;;;5015673;28;20520;-56
2023/06/02 01:15:23;;;;;;;27.07;6.60;;;9.90;3.50;;;;;;5015174;28;20466;-55
2023/06/02 01:17:50;;;;;;;26.33;7.70;;;9.80;23.50;;;;;;5014491;28;20596;-56
2023/06/02 01:20:21;;;;;;;43.13;7.20;;;9.80;53.30;;;;;;5014444;28;20191;-57
2023/06/02 01:23:16;;;;;;;24.63;6.33;;;9.80;99.90;;;;;;5017001;28;20423;-56
2023/06/02 01:25:42;;;;;;;28.83;7.00;;;9.70;99.90;;;;;;5015874;28;20446;-56
2023/06/02 01:28:09;;;;;;;28.27;6.50;;;9.70;99.90;;;;;;5015670;28;20796;-55
2023/06/02 01:30:35;;;;;;;23.47;7.33;;;9.60;99.90;;;;;;5014626;28;20453;-56
2023/06/02 01:33:20;;;;;;;29.13;6.70;;;9.60;99.90;;;;;;5033657;28;20796;-56
2023/06/02 01:35:48;;;;;;;33.83;7.77;;;9.60;99.90;;;;;;5018327;28;20801;-55
2023/06/02 01:38:17;;;;;;;25.30;6.53;;;9.60;99.90;;;;;;5011084;28;20438;-55
2023/06/02 01:40:43;;;;;;;31.13;7.43;;;9.60;99.90;;;;;;5019199;28;20453;-56
2023/06/02 01:43:10;;;;;;;26.87;7.57;;;9.50;99.90;;;;;;5014437;28;20990;-55
2023/06/02 01:45:37;;;;;;;37.33;7.30;;;9.50;99.90;;;;;;5020462;28;20443;-55
2023/06/02 01:48:07;;;;;;;22.57;6.53;;;9.50;99.90;;;;;;5020581;28;20956;-55
2023/06/02 01:50:34;;;;;;;33.13;7.43;;;9.40;99.90;;;;;;5012662;28;20447;-55
2023/06/02 01:53:00;;;;;;;28.63;7.27;;;9.40;99.90;;;;;;5016986;28;20466;-55
2023/06/02 01:55:25;;;;;;;32.87;7.27;;;9.40;99.90;;;;;;5014088;28;20604;-55
2023/06/02 01:57:51;;;;;;;29.37;6.60;;;9.40;99.90;;;;;;5018583;28;20655;-55
2023/06/02 02:00:18;;;;;;;25.37;5.90;;;9.30;99.90;;;;;;5030721;28;20184;-55
2023/06/02 02:02:45;;;;;;;22.70;6.37;;;9.30;99.90;;;;;;5021781;28;20230;-55
2023/06/02 02:05:11;;;;;;;36.47;7.47;;;9.30;99.90;;;;;;5012078;28;20474;-55
2023/06/02 02:07:42;;;;;;;21.27;6.40;;;9.30;99.90;;;;;;5019845;28;20497;-55
2023/06/02 02:10:10;;;;;;;30.40;8.30;;;9.30;99.90;;;;;;5011443;28;20195;-55
2023/06/02 02:12:36;;;;;;;31.27;7.13;;;9.30;99.90;;;;;;5002711;28;20454;-56
2023/06/02 02:15:04;;;;;;;19.30;6.90;;;9.30;99.90;;;;;;5017207;28;20462;-55
2023/06/02 02:17:30;;;;;;;39.97;7.20;;;9.30;99.90;;;;;;5031865;28;20242;-54
2023/06/02 02:19:56;;;;;;;37.23;7.73;;;9.40;99.90;;;;;;5018367;28;20443;-54
2023/06/02 02:22:23;;;;;;;29.10;7.10;;;9.40;99.90;;;;;;5011346;28;20438;-55
2023/06/02 02:24:49;;;;;;;36.87;7.50;;;9.40;99.90;;;;;;5015832;28;20439;-55
2023/06/02 02:27:15;;;;;;;23.70;6.57;;;9.40;99.90;;;;;;5012334;28;20759;-54
2023/06/02 02:29:41;;;;;;;34.27;7.83;;;9.30;99.90;;;;;;5015791;28;20440;-55
2023/06/02 02:32:07;;;;;;;23.93;7.77;;;9.40;99.90;;;;;;5027023;28;21035;-55
2023/06/02 02:34:33;;;;;;;29.03;7.07;;;9.40;99.90;;;;;;5012670;28;20858;-54
2023/06/02 02:37:01;;;;;;;26.03;7.20;;;9.40;99.90;;;;;;5018596;28;20274;-55
2023/06/02 02:39:30;;;;;;;27.60;7.77;;;9.40;99.90;;;;;;5011186;28;20208;-54
2023/06/02 02:41:56;;;;;;;39.07;8.30;;;9.40;99.90;;;;;;5009270;28;20426;-55
2023/06/02 02:44:21;;;;;;;40.47;7.87;;;9.40;99.90;;;;;;5020695;28;20430;-55
2023/06/02 02:46:47;;;;;;;33.77;8.00;;;9.40;99.90;;;;;;5028497;28;20227;-54
2023/06/02 02:49:13;;;;;;;38.77;8.93;;;9.40;99.90;;;;;;5021398;28;20636;-55
2023/06/02 02:51:38;;;;;;;27.97;7.07;;;9.40;99.90;;;;;;5015462;28;20443;-55
2023/06/02 02:54:04;;;;;;;30.03;7.60;;;9.40;99.90;;;;;;5015311;28;20188;-55
2023/06/02 02:56:30;;;;;;;28.70;6.67;;;9.40;99.90;;;;;;5014404;28;20684;-55
2023/06/02 02:58:58;;;;;;;24.20;6.53;;;9.40;99.90;;;;;;5014730;28;20481;-54
2023/06/02 03:01:24;;;;;;;29.87;8.20;;;9.40;99.90;;;;;;5013297;28;20280;-54
2023/06/02 03:03:50;;;;;;;33.67;6.87;;;9.40;99.90;;;;;;5013167;28;20475;-54
2023/06/02 03:06:17;;;;;;;50.80;9.80;;;9.40;99.90;;;;;;5012878;28;20242;-55
2023/06/02 03:08:46;;;;;;;33.70;7.90;;;9.40;99.90;;;;;;5013152;28;20652;-54
2023/06/02 03:11:13;;;;;;;40.70;8.40;;;9.40;99.90;;;;;;5005839;28;20783;-54
2023/06/02 03:13:38;;;;;;;27.97;7.00;;;9.30;99.90;;;;;;4998402;28;20438;-53
2023/06/02 03:16:04;;;;;;;27.20;7.77;;;9.40;99.90;;;;;;5012883;28;20475;-54
2023/06/02 03:18:30;;;;;;;27.13;7.80;;;9.40;99.90;;;;;;5014541;28;20196;-54
2023/06/02 03:20:58;;;;;;;33.53;6.90;;;9.30;99.90;;;;;;5011705;28;20423;-54
2023/06/02 03:23:25;;;;;;;34.60;7.67;;;9.40;99.90;;;;;;5002727;28;20640;-54
2023/06/02 03:25:51;;;;;;;52.83;7.87;;;9.30;99.90;;;;;;5010382;28;20427;-54
2023/06/02 03:28:18;;;;;;;25.47;6.90;;;9.30;99.90;;;;;;5014567;28;20569;-53
2023/06/02 03:30:44;;;;;;;37.20;7.40;;;9.30;99.90;;;;;;5014464;28;20410;-53
2023/06/02 03:33:09;;;;;;;25.47;7.70;;;9.40;99.90;;;;;;5014200;28;20754;-53
2023/06/02 03:35:35;;;;;;;24.60;6.90;;;9.40;99.90;;;;;;5013520;28;20219;-54
2023/06/02 03:38:01;;;;;;;41.30;7.87;;;9.40;99.90;;;;;;5014403;28;20227;-54
2023/06/02 03:40:26;;;;;;;32.80;7.80;;;9.50;99.90;;;;;;5013886;28;20262;-53
2023/06/02 03:42:52;;;;;;;29.97;7.37;;;9.40;99.90;;;;;;5014077;28;20283;-54
2023/06/02 03:45:17;;;;;;;40.97;8.07;;;9.50;99.90;;;;;;5012024;28;20271;-54
2023/06/02 03:47:43;;;;;;;27.47;7.70;;;9.50;99.90;;;;;;5013219;28;20187;-54
2023/06/02 03:50:09;;;;;;;31.10;8.17;;;9.50;99.90;;;;;;5011431;28;20191;-54
2023/06/02 03:52:35;;;;;;;35.67;8.20;;;9.50;99.90;;;;;;5010326;28;20197;-54
2023/06/02 03:55:00;;;;;;;30.47;7.40;;;9.50;99.90;;;;;;5011056;28;20473;-54
2023/06/02 03:57:26;;;;;;;35.70;7.00;;;9.60;99.90;;;;;;5014223;28;20240;-54
2023/06/02 03:59:52;;;;;;;35.43;7.50;;;9.50;99.90;;;;;;5024213;28;20599;-54
2023/06/02 04:02:17;;;;;;;34.77;6.83;;;9.50;99.90;;;;;;5016730;28;20184;-54
2023/06/02 04:04:43;;;;;;;39.67;8.20;;;9.60;99.90;;;;;;5022669;28;20643;-54
2023/06/02 04:07:08;;;;;;;34.30;6.80;;;9.60;99.90;;;;;;5015717;28;20184;-54
2023/06/02 04:09:34;;;;;;;27.70;6.57;;;9.60;99.90;;;;;;5011550;28;20627;-54
2023/06/02 04:12:00;;;;;;;29.80;6.80;;;9.60;99.90;;;;;;5003089;28;20283;-54
2023/06/02 04:14:27;;;;;;;29.57;7.53;;;9.70;99.90;;;;;;5013997;28;20200;-53
2023/06/02 04:16:53;;;;;;;28.20;6.50;;;9.80;99.90;;;;;;5009595;28;20259;-53
2023/06/02 04:19:19;;;;;;;25.87;6.97;;;9.80;99.90;;;;;;5018591;28;20524;-54
2023/06/02 04:21:44;;;;;;;28.47;7.67;;;9.80;99.90;;;;;;5011758;28;20654;-54
2023/06/02 04:24:10;;;;;;;23.63;7.40;;;9.80;99.90;;;;;;5015192;28;20203;-54
2023/06/02 04:26:36;;;;;;;31.73;6.43;;;9.90;99.90;;;;;;5014457;28;20829;-54
2023/06/02 04:29:01;;;;;;;27.03;6.40;;;10.00;99.90;;;;;;5015312;28;20192;-54
2023/06/02 04:31:45;;;;;;;32.03;6.30;;;10.00;99.90;;;;;;5016550;28;20184;-54
2023/06/02 04:34:12;;;;;;;23.67;6.53;;;10.00;99.90;;;;;;5017226;28;20278;-56
2023/06/02 04:36:38;;;;;;;29.67;7.73;;;10.20;99.90;;;;;;5015099;28;20486;-55
2023/06/02 04:39:07;;;;;;;24.17;6.90;;;10.20;99.90;;;;;;5014651;28;20494;-55
2023/06/02 04:41:33;;;;;;;23.50;6.80;;;10.30;99.90;;;;;;5015114;28;21149;-55
2023/06/02 04:44:00;;;;;;;22.27;5.70;;;10.40;99.90;;;;;;5013620;28;20451;-56
2023/06/02 04:46:26;;;;;;;18.20;5.63;;;10.50;99.90;;;;;;5014769;28;20446;-55
2023/06/02 04:48:52;;;;;;;20.27;5.97;;;10.50;99.90;;;;;;5015299;28;20447;-56
2023/06/02 04:51:19;;;;;;;22.83;6.30;;;10.60;99.90;;;;;;5015751;28;20529;-55
2023/06/02 04:53:45;;;;;;;25.17;5.43;;;10.80;99.90;;;;;;5016403;28;20775;-56
2023/06/02 04:56:10;;;;;;;15.53;5.37;;;10.90;99.90;;;;;;5013161;28;20490;-56
2023/06/02 04:58:37;;;;;;;23.40;6.03;;;11.10;99.90;;;;;;5024986;28;20529;-57
2023/06/02 05:01:03;;;;;;;23.90;6.23;;;11.20;99.90;;;;;;5019861;28;20666;-57
2023/06/02 05:03:29;;;;;;;25.13;5.03;;;11.30;99.90;;;;;;5015522;28;20485;-56
2023/06/02 05:05:54;;;;;;;16.43;5.30;;;11.50;99.90;;;;;;5011941;28;20636;-56
2023/06/02 05:08:21;;;;;;;15.03;4.37;;;11.60;99.90;;;;;;5005106;28;20193;-56
2023/06/02 05:10:47;;;;;;;19.50;5.13;;;11.70;99.90;;;;;;5016763;28;20195;-57
2023/06/02 05:13:14;;;;;;;23.27;5.37;;;11.80;99.90;;;;;;5013897;28;20537;-56
2023/06/02 05:15:39;;;;;;;18.00;4.97;;;11.90;38.70;;;;;;5009725;28;20219;-56
2023/06/02 05:18:05;;;;;;;18.13;5.33;;;12.10;1.00;;;;;;5015810;28;20453;-56
2023/06/02 05:20:30;;;;;;;20.40;4.73;;;12.30;1.00;;;;;;5014510;28;20188;-56
2023/06/02 05:22:56;;;;;;;20.17;5.47;;;12.30;1.00;;;;;;5003956;28;20547;-58
2023/06/02 05:25:21;;;;;;;15.70;4.87;;;12.40;1.00;;;;;;5021717;28;20183;-57
2023/06/02 05:27:47;;;;;;;19.40;4.70;;;12.60;1.00;;;;;;5036077;28;20179;-57
2023/06/02 05:30:14;;;;;;;23.20;6.00;;;12.70;99.90;;;;;;5034420;28;20338;-58
2023/06/02 05:32:40;;;;;;;16.60;4.50;;;12.70;60.50;;;;;;5033924;28;20203;-57
2023/06/02 05:35:06;;;;;;;16.80;5.67;;;12.60;99.90;;;;;;5017663;28;20470;-57
2023/06/02 05:37:31;;;;;;;19.30;4.87;;;12.50;99.90;;;;;;5015826;28;20195;-57
2023/06/02 05:39:57;;;;;;;16.80;5.10;;;12.40;99.90;;;;;;5015873;28;20481;-56
2023/06/02 05:42:23;;;;;;;15.03;4.60;;;12.40;1.00;;;;;;5016063;28;20528;-56
2023/06/02 05:44:49;;;;;;;14.00;5.10;;;12.50;1.00;;;;;;5013855;28;20644;-56
2023/06/02 05:47:15;;;;;;;19.73;5.10;;;12.40;1.00;;;;;;5015942;28;20477;-56
2023/06/02 05:49:40;;;;;;;16.43;4.70;;;12.50;1.00;;;;;;4995142;28;20223;-57
2023/06/02 05:52:06;;;;;;;20.80;5.97;;;12.60;1.00;;;;;;5006564;28;20200;-58
2023/06/02 05:54:31;;;;;;;16.53;5.07;;;12.70;1.00;;;;;;5011564;28;20549;-57
2023/06/02 05:56:57;;;;;;;16.17;5.53;;;12.80;1.00;;;;;;5015063;28;20715;-59
2023/06/02 05:59:23;;;;;;;18.87;5.20;;;12.90;1.00;;;;;;5033411;28;20533;-59
2023/06/02 06:01:48;;;;;;;20.83;5.37;;;12.90;1.00;;;;;;5024134;28;20598;-58
2023/06/02 06:04:14;;;;;;;11.93;5.60;;;13.00;1.00;;;;;;5015603;28;20180;-58
2023/06/02 06:06:39;;;;;;;14.90;5.17;;;13.10;1.00;;;;;;5014531;28;20192;-58
2023/06/02 06:09:05;;;;;;;14.63;5.30;;;13.30;1.00;;;;;;5015576;28;20184;-58
2023/06/02 06:11:31;;;;;;;18.40;6.20;;;13.40;99.90;;;;;;5013618;28;20237;-58
2023/06/02 06:13:57;;;;;;;14.30;5.20;;;13.50;99.90;;;;;;5015397;28;20188;-58
2023/06/02 06:16:22;;;;;;;11.30;5.00;;;13.60;99.90;;;;;;5015000;28;20966;-58
2023/06/02 06:18:48;;;;;;;13.77;4.63;;;13.60;99.90;;;;;;5012154;28;20633;-58
2023/06/02 06:21:13;;;;;;;16.57;5.40;;;13.70;99.90;;;;;;5013528;28;20284;-59
2023/06/02 06:23:39;;;;;;;20.73;5.33;;;13.90;99.90;;;;;;5015176;28;20187;-58
2023/06/02 06:26:05;;;;;;;15.30;5.00;;;13.90;1.00;;;;;;5015085;28;20214;-57
2023/06/02 06:28:30;;;;;;;20.60;5.87;;;13.90;1.00;;;;;;5016342;28;20200;-59
2023/06/02 06:30:56;;;;;;;15.00;5.97;;;14.00;50.40;;;;;;5022798;28;20206;-59
2023/06/02 06:33:21;;;;;;;16.97;5.20;;;14.10;99.90;;;;;;5010037;28;20196;-58
2023/06/02 06:35:47;;;;;;;20.33;5.93;;;14.10;1.00;;;;;;5012911;28;20215;-60
2023/06/02 06:38:13;;;;;;;18.63;6.00;;;14.10;1.00;;;;;;5029153;28;20278;-60
2023/06/02 06:40:38;;;;;;;15.67;5.60;;;14.00;1.00;;;;;;5015779;28;20193;-59
2023/06/02 06:43:04;;;;;;;22.43;10.43;;;14.00;96.50;;;;;;5018402;28;20587;-59
2023/06/02 06:45:30;;;;;;;51.87;23.80;;;14.10;99.90;;;;;;4998939;28;20184;-58
2023/06/02 06:47:56;;;;;;;18.70;8.60;;;14.10;99.90;;;;;;4997566;28;20542;-59
2023/06/02 06:50:21;;;;;;;15.93;8.27;;;14.10;99.90;;;;;;5013862;28;20226;-58
2023/06/02 06:52:48;;;;;;;27.30;6.00;;;14.10;99.90;;;;;;5014652;28;20519;-58
2023/06/02 06:55:14;;;;;;;14.87;5.43;;;14.30;99.90;;;;;;5019987;28;20219;-59
2023/06/02 06:57:40;;;;;;;19.52;5.80;;;14.40;99.90;;;;;;5028945;28;20482;-56
2023/06/02 07:00:06;;;;;;;17.83;5.97;;;14.60;99.90;;;;;;5003836;28;20462;-59
2023/06/02 07:02:32;;;;;;;14.10;5.83;;;14.70;47.10;;;;;;5006245;28;20201;-59
2023/06/02 07:04:58;;;;;;;9.73;4.43;;;14.80;1.00;;;;;;5029307;28;21030;-58
2023/06/02 07:07:24;;;;;;;14.30;5.17;;;14.80;1.00;;;;;;5014235;28;20507;-58
2023/06/02 07:09:49;;;;;;;14.13;5.47;;;15.00;83.10;;;;;;5016590;28;20311;-61
2023/06/02 07:12:15;;;;;;;10.80;5.20;;;15.10;1.00;;;;;;5014073;28;20505;-60
2023/06/02 07:14:41;;;;;;;15.23;5.00;;;15.30;1.00;;;;;;5014248;28;20182;-60
2023/06/02 07:17:07;;;;;;;15.73;5.57;;;15.50;99.90;;;;;;5012291;28;20224;-60
2023/06/02 07:19:33;;;;;;;13.33;5.87;;;15.50;1.00;;;;;;5014369;28;20278;-61
2023/06/02 07:21:58;;;;;;;12.13;5.60;;;15.60;99.90;;;;;;5017576;28;20570;-61
2023/06/02 07:24:24;;;;;;;13.77;5.80;;;15.70;99.90;;;;;;5033695;28;20188;-60
2023/06/02 07:26:49;;;;;;;12.77;5.40;;;15.80;99.90;;;;;;5026968;28;20681;-59
2023/06/02 07:29:15;;;;;;;10.20;5.30;;;15.80;90.70;;;;;;5014823;28;20294;-59
2023/06/02 07:31:43;;;;;;;15.07;5.07;;;15.80;86.90;;;;;;5032411;28;20187;-60
2023/06/02 07:34:08;;;;;;;16.03;6.10;;;15.70;45.80;;;;;;5022792;28;20201;-59
2023/06/02 07:36:34;;;;;;;15.15;5.43;;;15.60;40.80;;;;;;5022235;28;20441;-59
2023/06/02 07:39:00;;;;;;;14.00;5.77;;;15.50;53.80;;;;;;5015806;28;20199;-59
2023/06/02 07:41:27;;;;;;;23.13;6.20;;;15.40;64.40;;;;;;5033441;28;20181;-60
2023/06/02 07:43:53;;;;;;;13.13;4.80;;;15.40;84.30;;;;;;5033682;28;20193;-59
2023/06/02 07:46:19;;;;;;;10.23;5.60;;;15.40;99.90;;;;;;5027461;28;20449;-59
2023/06/02 07:48:44;;;;;;;17.00;6.87;;;15.40;95.40;;;;;;5008390;28;20581;-60
2023/06/02 07:51:10;;;;;;;14.40;6.70;;;15.50;62.10;;;;;;5008518;28;20817;-58
2023/06/02 07:53:36;;;;;;;16.23;6.83;;;15.40;19.20;;;;;;5008496;28;20797;-58
2023/06/02 07:56:01;;;;;;;35.63;8.43;;;15.30;12.90;;;;;;5011765;28;20233;-60
2023/06/02 07:58:27;;;;;;;16.37;6.50;;;15.30;8.70;;;;;;5012412;28;20602;-57
2023/06/02 08:00:53;;;;;;;9.93;6.10;;;15.40;18.70;;;;;;5008800;28;20193;-59
2023/06/02 08:03:18;;;;;;;10.27;5.67;;;15.40;7.80;;;;;;5011770;28;20182;-56
2023/06/02 08:05:45;;;;;;;15.03;6.17;;;15.60;1.30;;;;;;5012234;28;20198;-59
2023/06/02 08:08:11;;;;;;;16.43;5.70;;;15.80;1.00;;;;;;5013294;28;20194;-59
2023/06/02 08:10:37;;;;;;;11.07;5.53;;;15.70;1.00;;;;;;5012404;28;20440;-57
2023/06/02 08:13:02;;;;;;;10.70;6.10;;;15.70;1.00;;;;;;5013244;28;20445;-60
2023/06/02 08:15:28;;;;;;;8.63;4.80;;;15.80;1.00;;;;;;5011011;28;20213;-59
2023/06/02 08:17:53;;;;;;;13.17;6.13;;;16.00;1.00;;;;;;5013328;28;20562;-58
2023/06/02 08:20:19;;;;;;;15.30;5.30;;;16.30;1.00;;;;;;5005422;28;20194;-59
2023/06/02 08:22:45;;;;;;;12.97;5.67;;;16.70;1.00;;;;;;5012571;28;20705;-59
2023/06/02 08:25:12;;;;;;;11.23;5.67;;;17.10;1.00;;;;;;5011268;28;20196;-61
2023/06/02 08:27:38;;;;;;;10.40;5.30;;;17.20;1.00;;;;;;5012256;28;20198;-56
2023/06/02 08:30:05;;;;;;;9.40;5.60;;;17.10;1.00;;;;;;5012030;28;20453;-58
2023/06/02 08:32:31;;;;;;;17.83;5.77;;;16.80;1.00;;;;;;5012187;28;20983;-57
2023/06/02 08:35:01;;;;;;;9.77;4.73;;;16.50;1.00;;;;;;5013171;28;20440;-58
2023/06/02 08:37:29;;;;;;;10.20;5.30;;;16.40;1.00;;;;;;5013649;28;20701;-59
2023/06/02 08:39:56;;;;;;;18.20;6.10;;;16.30;1.00;;;;;;5012535;28;20528;-58
2023/06/02 08:42:25;;;;;;;13.10;5.73;;;16.40;1.00;;;;;;5011302;28;20447;-59
2023/06/02 08:44:50;;;;;;;12.27;4.87;;;16.60;1.00;;;;;;5010845;28;20521;-56
2023/06/02 08:47:22;;;;;;;8.67;5.07;;;16.70;1.00;;;;;;5013456;28;20437;-59
2023/06/02 08:49:48;;;;;;;6.70;4.43;;;16.80;1.00;;;;;;5012382;28;20667;-59
2023/06/02 08:52:20;;;;;;;12.90;5.47;;;16.80;1.00;;;;;;5011791;28;20441;-59
2023/06/02 08:54:46;;;;;;;13.20;5.50;;;16.70;1.00;;;;;;5012252;28;20210;-59
2023/06/02 08:57:16;;;;;;;11.80;5.20;;;16.80;1.00;;;;;;5011206;28;20499;-59
2023/06/02 08:59:44;;;;;;;11.20;5.13;;;16.80;1.00;;;;;;5011613;28;20254;-60
2023/06/02 09:02:10;;;;;;;7.43;4.07;;;16.90;1.00;;;;;;5011807;28;20437;-61
2023/06/02 09:04:36;;;;;;;8.07;3.33;;;17.00;1.00;;;;;;5010635;28;20542;-60
2023/06/02 09:07:15;;;;;;;5.03;3.67;;;16.90;1.00;;;;;;5011615;28;20191;-59
2023/06/02 09:09:42;;;;;;;10.33;3.73;;;16.70;1.00;;;;;;5011044;28;20964;-60
2023/06/02 09:12:08;;;;;;;6.77;3.50;;;16.50;1.00;;;;;;5010035;28;20782;-57
2023/06/02 09:14:38;;;;;;;8.37;3.67;;;16.30;1.00;;;;;;5013499;28;20437;-57
2023/06/02 09:17:04;;;;;;;6.17;3.33;;;16.20;1.00;;;;;;5010794;28;20831;-58
2023/06/02 09:19:50;;;;;;;6.13;3.20;;;16.10;1.00;;;;;;5011354;28;20477;-60
2023/06/02 09:22:16;;;;;;;9.47;3.80;;;16.10;1.00;;;;;;5007729;28;20449;-57
2023/06/02 09:24:42;;;;;;;9.20;3.65;;;16.20;1.00;;;;;;5009329;28;20436;-59
2023/06/02 09:27:17;;;;;;;8.03;3.33;;;16.30;1.00;;;;;;5011057;28;20206;-60
2023/06/02 09:29:44;;;;;;;9.00;3.87;;;16.50;1.00;;;;;;5008101;28;20186;-59
2023/06/02 09:32:17;;;;;;;12.70;4.60;;;16.50;1.00;;;;;;5006454;28;20858;-60
2023/06/02 09:34:46;;;;;;;11.20;3.77;;;16.60;1.00;;;;;;5007431;28;20782;-60
2023/06/02 09:37:14;;;;;;;15.27;3.47;;;16.80;1.00;;;;;;5009942;28;20484;-60
2023/06/02 09:39:42;;;;;;;11.73;3.13;;;17.20;1.00;;;;;;5008592;28;20446;-59
2023/06/02 09:42:08;;;;;;;8.50;2.83;;;18.00;1.00;;;;;;5010664;28;20561;-60
2023/06/02 09:44:34;;;;;;;6.70;2.97;;;18.30;1.00;;;;;;5008734;28;21047;-60
2023/06/02 09:47:02;;;;;;;7.47;3.43;;;18.30;1.00;;;;;;5011377;28;20943;-60
2023/06/02 09:49:38;;;;;;;5.07;3.17;;;18.20;1.00;;;;;;5009376;28;20457;-59
2023/06/02 09:52:11;;;;;;;8.53;3.00;;;18.10;1.00;;;;;;5009898;28;20482;-58
2023/06/02 09:54:37;;;;;;;6.47;3.47;;;18.20;1.00;;;;;;5005955;28;20457;-59
2023/06/02 09:57:03;;;;;;;9.40;3.00;;;18.20;1.00;;;;;;5008373;28;20497;-60
2023/06/02 09:59:30;;;;;;;6.40;2.87;;;18.20;1.00;;;;;;5009552;28;20478;-59
2023/06/02 10:01:56;;;;;;;7.10;2.80;;;18.10;1.00;;;;;;5009399;28;20438;-57
2023/06/02 10:04:21;;;;;;;5.90;2.97;;;18.00;1.00;;;;;;5008153;28;20520;-58
2023/06/02 10:07:08;;;;;;;4.63;2.40;;;17.90;1.00;;;;;;5009501;28;20199;-57
2023/06/02 10:09:52;;;;;;;4.57;2.70;;;17.80;1.00;;;;;;5001371;28;20437;-60
2023/06/02 10:12:43;;;;;;;4.53;2.47;;;17.80;1.00;;;;;;5010456;28;20455;-58
2023/06/02 10:15:20;;;;;;;4.73;2.47;;;17.90;1.00;;;;;;5011222;28;20445;-59
2023/06/02 10:17:52;;;;;;;5.87;2.73;;;18.00;1.00;;;;;;5010021;28;20447;-59
2023/06/02 10:20:38;;;;;;;7.90;2.37;;;18.00;1.00;;;;;;5006686;28;20453;-58
2023/06/02 10:23:15;;;;;;;2.80;2.00;;;18.10;1.00;;;;;;5006503;28;20439;-59
2023/06/02 10:26:27;;;;;;;4.33;2.10;;;18.30;1.00;;;;;;5005772;28;20514;-58
2023/06/02 10:28:54;;;;;;;9.67;2.40;;;18.10;1.00;;;;;;5006851;28;20531;-59
2023/06/02 10:31:33;;;;;;;4.80;2.20;;;18.10;1.00;;;;;;5009123;28;20449;-60
2023/06/02 10:34:00;;;;;;;3.13;2.17;;;18.10;1.00;;;;;;5009676;28;20446;-59
2023/06/02 10:36:27;;;;;;;3.87;1.80;;;18.40;1.00;;;;;;5010385;28;20496;-59
2023/06/02 10:38:55;;;;;;;6.50;2.00;;;19.50;1.00;;;;;;5010748;28;20983;-59
2023/06/02 10:41:59;;;;;;;5.90;2.43;;;20.40;1.00;;;;;;5009321;28;20443;-59
2023/06/02 10:44:25;;;;;;;11.20;2.07;;;20.50;1.00;;;;;;5008048;28;20855;-58
2023/06/02 10:47:19;;;;;;;5.33;2.40;;;20.40;1.00;;;;;;5009830;28;20519;-59
2023/06/02 10:49:58;;;;;;;2.40;2.20;;;20.90;1.00;;;;;;5006224;28;20234;-58
2023/06/02 10:52:29;;;;;;;2.50;1.77;;;22.00;1.00;;;;;;5010303;28;20449;-57
2023/06/02 10:55:07;;;;;;;2.80;1.93;;;22.70;1.00;;;;;;5009759;28;20439;-58
2023/06/02 10:57:52;;;;;;;3.63;1.77;;;23.10;1.00;;;;;;5009041;28;20481;-59
2023/06/02 11:00:35;;;;;;;2.10;1.60;;;23.40;1.00;;;;;;5008970;28;20451;-58
2023/06/02 11:03:26;;;;;;;4.37;1.83;;;23.50;1.00;;;;;;5006591;28;20452;-58
2023/06/02 11:06:19;;;;;;;2.80;1.57;;;23.70;99.90;;;;;;5006288;28;20468;-58
2023/06/02 11:08:46;;;;;;;8.23;2.00;;;24.00;99.90;;;;;;5006445;28;20493;-58
2023/06/02 11:11:11;;;;;;;2.97;1.60;;;23.70;99.90;;;;;;5009386;28;20443;-58
2023/06/02 11:13:58;;;;;;;2.87;1.50;;;23.50;99.90;;;;;;5008320;28;20451;-57
2023/06/02 11:16:27;;;;;;;2.40;1.90;;;24.20;99.90;;;;;;5007105;28;20359;-59
2023/06/02 11:18:53;;;;;;;2.60;1.83;;;24.90;99.90;;;;;;5008979;28;20457;-59
2023/06/02 11:21:23;;;;;;;5.60;1.90;;;25.90;99.90;;;;;;4999180;28;20442;-59
2023/06/02 11:23:48;;;;;;;10.10;1.80;;;26.80;99.90;;;;;;5000905;28;20229;-57
2023/06/02 11:26:18;;;;;;;4.90;1.97;;;26.90;99.90;;;;;;5008676;28;20442;-56
2023/06/02 11:28:44;;;;;;;5.17;1.63;;;27.40;99.90;;;;;;5001846;28;20241;-54
2023/06/02 11:31:18;;;;;;;3.73;1.63;;;28.10;99.90;;;;;;5011206;28;20528;-58
2023/06/02 11:33:48;;;;;;;3.50;1.40;;;28.30;99.90;;;;;;5008425;28;20434;-58
2023/06/02 11:36:16;;;;;;;3.93;2.00;;;28.00;99.90;;;;;;5008326;28;20516;-56
2023/06/02 11:38:42;;;;;;;5.07;1.70;;;26.90;99.90;;;;;;5012143;28;20529;-57
2023/06/02 11:41:09;;;;;;;4.87;1.90;;;26.00;99.90;;;;;;5008066;28;20442;-57
2023/06/02 11:43:36;;;;;;;4.40;1.70;;;25.10;99.90;;;;;;5006051;28;20739;-57
2023/06/02 11:46:09;;;;;;;7.50;1.80;;;24.60;99.90;;;;;;5008450;28;20959;-58
2023/06/02 11:48:38;;;;;;;3.33;1.53;;;24.50;99.90;;;;;;4992472;28;20454;-55
2023/06/02 11:51:05;;;;;;;4.07;2.13;;;24.80;99.90;;;;;;5007412;28;20444;-58
2023/06/02 11:53:31;;;;;;;4.07;2.00;;;25.10;99.90;;;;;;4999470;28;20444;-58
2023/06/02 11:55:57;;;;;;;5.33;2.00;;;25.20;99.90;;;;;;5005013;28;21130;-59
2023/06/02 11:58:28;;;;;;;9.43;1.80;;;24.80;99.90;;;;;;5009360;28;20434;-58
2023/06/02 12:01:08;;;;;;;4.93;1.57;;;23.90;99.90;;;;;;5007802;28;20453;-58
2023/06/02 12:03:34;;;;;;;10.13;2.10;;;22.90;99.90;;;;;;5006569;28;20449;-57
2023/06/02 12:06:11;;;;;;;4.90;1.77;;;22.20;99.90;;;;;;5006874;28;20539;-57
2023/06/02 12:08:37;;;;;;;4.03;1.97;;;22.40;99.90;;;;;;5007817;28;20444;-58
2023/06/02 12:11:03;;;;;;;5.47;1.60;;;23.80;99.90;;;;;;5008590;28;20437;-59
2023/06/02 12:13:30;;;;;;;8.80;2.07;;;25.20;99.90;;;;;;5007820;28;20687;-59
2023/06/02 12:16:18;;;;;;;7.03;2.10;;;26.30;99.90;;;;;;5007700;28;21057;-58
2023/06/02 12:18:43;;;;;;;4.43;2.33;;;26.60;99.90;;;;;;4990310;28;20526;-56
2023/06/02 12:21:25;;;;;;;2.83;1.50;;;26.90;99.90;;;;;;5004958;28;20588;-59
2023/06/02 12:23:51;;;;;;;4.33;2.07;;;27.20;99.90;;;;;;5006697;28;20423;-56
2023/06/02 12:26:17;;;;;;;3.37;1.60;;;27.20;99.90;;;;;;5008947;28;20973;-57
2023/06/02 12:28:42;;;;;;;2.80;1.60;;;27.60;99.90;;;;;;5005343;28;20189;-57
2023/06/02 12:31:08;;;;;;;6.30;1.87;;;27.70;99.90;;;;;;5009981;28;20191;-57
2023/06/02 12:33:34;;;;;;;3.87;1.67;;;27.90;99.90;;;;;;5007260;28;20686;-56
2023/06/02 12:36:00;;;;;;;6.00;1.87;;;26.80;99.90;;;;;;5005841;28;20233;-56
2023/06/02 12:38:27;;;;;;;8.57;1.90;;;26.60;99.90;;;;;;5005166;28;20428;-56
2023/06/02 12:40:53;;;;;;;14.20;2.00;;;25.80;99.90;;;;;;5008119;28;20447;-56
2023/06/02 12:43:19;;;;;;;4.50;1.80;;;24.70;99.90;;;;;;5011176;28;20813;-57
2023/06/02 12:45:46;;;;;;;7.93;1.60;;;24.90;99.90;;;;;;5009916;28;20806;-55
2023/06/02 12:48:12;;;;;;;7.40;1.63;;;25.60;99.90;;;;;;5013475;28;20576;-57
2023/06/02 12:50:38;;;;;;;1.97;1.30;;;26.10;99.90;;;;;;5011278;28;20443;-57